sensor_id;sensor_type;location;lat;lon;timestamp;pressure;altitude;pressure_sealevel;temperature;humidity
13367;BME280;6752;52.612;13.630;2022-09-02T00:00:23;101562.10;;;12.74;100.00
13367;BME280;6752;52.612;13.630;2022-09-02T00:05:26;101560.62;;;12.75;100.00
13367;BME280;6752;52.612;13.630;2022-09-02T00:10:28;101559.16;;;12.82;100.00
13367;BME280;6752;52.612;13.630;2022-09-02T00:15:31;101550.41;;;12.86;100.00
13367;BME280;6752;52.612;13.630;2022-09-02T00:20:33;101551.84;;;13.02;100.00
13367;BME280;6752;52.612;13.630;2022-09-02T00:25:36;101552.03;;;13.00;100.00
13367;BME280;6752;52.612;13.630;2022-09-02T00:30:38;101548.27;;;13.01;100.00
13367;BME280;6752;52.612;13.630;2022-09-02T00:35:40;101546.16;;;13.03;100.00
13367;BME280;6752;52.612;13.630;2022-09-02T00:40:44;101543.25;;;13.14;100.00
13367;BME280;6752;52.612;13.630;2022-09-02T00:45:45;101541.38;;;13.11;100.00
13367;BME280;6752;52.612;13.630;2022-09-02T00:50:47;101539.88;;;13.15;100.00
13367;BME280;6752;52.612;13.630;2022-09-02T00:55:50;101543.55;;;13.28;100.00
13367;BME280;6752;52.612;13.630;2022-09-02T01:00:52;101544.03;;;13.05;100.00
13367;BME280;6752;52.612;13.630;2022-09-02T01:05:55;101539.94;;;12.99;100.00
13367;BME280;6752;52.612;13.630;2022-09-02T01:10:57;101538.89;;;13.03;100.00
13367;BME280;6752;52.612;13.630;2022-09-02T01:16:09;101531.05;;;13.13;100.00
13367;BME280;6752;52.612;13.630;2022-09-02T01:21:07;101527.16;;;13.12;100.00
13367;BME280;6752;52.612;13.630;2022-09-02T01:26:10;101533.67;;;13.14;100.00
13367;BME280;6752;52.612;13.630;2022-09-02T01:31:12;101525.88;;;13.14;100.00
13367;BME280;6752;52.612;13.630;2022-09-02T01:36:15;101529.80;;;13.09;100.00
13367;BME280;6752;52.612;13.630;2022-09-02T01:41:17;101520.91;;;13.01;100.00
13367;BME280;6752;52.612;13.630;2022-09-02T01:46:19;101518.05;;;13.02;100.00
13367;BME280;6752;52.612;13.630;2022-09-02T01:51:22;101522.08;;;12.89;100.00
13367;BME280;6752;52.612;13.630;2022-09-02T01:56:25;101527.89;;;12.84;100.00
13367;BME280;6752;52.612;13.630;2022-09-02T02:01:27;101511.27;;;12.85;100.00
13367;BME280;6752;52.612;13.630;2022-09-02T02:06:30;101508.02;;;12.83;100.00
13367;BME280;6752;52.612;13.630;2022-09-02T02:11:32;101508.14;;;12.79;100.00
13367;BME280;6752;52.612;13.630;2022-09-02T02:16:34;101512.77;;;12.78;100.00
13367;BME280;6752;52.612;13.630;2022-09-02T02:21:40;101511.53;;;12.64;100.00
13367;BME280;6752;52.612;13.630;2022-09-02T02:26:39;101521.43;;;12.52;100.00
13367;BME280;6752;52.612;13.630;2022-09-02T02:31:41;101512.31;;;12.29;100.00
13367;BME280;6752;52.612;13.630;2022-09-02T02:36:46;101514.42;;;12.27;100.00
13367;BME280;6752;52.612;13.630;2022-09-02T02:41:49;101514.22;;;12.05;100.00
13367;BME280;6752;52.612;13.630;2022-09-02T02:46:51;101516.66;;;11.85;100.00
13367;BME280;6752;52.612;13.630;2022-09-02T02:51:56;101516.48;;;11.72;100.00
13367;BME280;6752;52.612;13.630;2022-09-02T02:56:59;101513.33;;;11.65;100.00
13367;BME280;6752;52.612;13.630;2022-09-02T03:02:01;101514.28;;;11.75;100.00
13367;BME280;6752;52.612;13.630;2022-09-02T03:07:03;101508.92;;;11.71;100.00
13367;BME280;6752;52.612;13.630;2022-09-02T03:12:06;101513.12;;;11.60;100.00
13367;BME280;6752;52.612;13.630;2022-09-02T03:17:08;101510.70;;;11.78;100.00
13367;BME280;6752;52.612;13.630;2022-09-02T03:22:11;101510.28;;;11.67;100.00
13367;BME280;6752;52.612;13.630;2022-09-02T03:27:13;101508.39;;;11.65;100.00
13367;BME280;6752;52.612;13.630;2022-09-02T03:32:15;101497.58;;;11.67;100.00
13367;BME280;6752;52.612;13.630;2022-09-02T03:37:18;101487.73;;;11.83;100.00
13367;BME280;6752;52.612;13.630;2022-09-02T03:42:20;101493.83;;;11.78;100.00
13367;BME280;6752;52.612;13.630;2022-09-02T03:47:22;101504.20;;;11.75;100.00
13367;BME280;6752;52.612;13.630;2022-09-02T03:52:25;101498.77;;;11.79;100.00
13367;BME280;6752;52.612;13.630;2022-09-02T03:57:27;101503.88;;;11.64;100.00
13367;BME280;6752;52.612;13.630;2022-09-02T04:02:30;101496.63;;;11.71;100.00
13367;BME280;6752;52.612;13.630;2022-09-02T04:07:32;101483.84;;;11.81;100.00
13367;BME280;6752;52.612;13.630;2022-09-02T04:12:35;101497.02;;;11.58;100.00
13367;BME280;6752;52.612;13.630;2022-09-02T04:17:37;101497.69;;;11.63;100.00
13367;BME280;6752;52.612;13.630;2022-09-02T04:22:39;101500.69;;;11.54;100.00
13367;BME280;6752;52.612;13.630;2022-09-02T04:27:41;101503.11;;;11.53;100.00
13367;BME280;6752;52.612;13.630;2022-09-02T04:32:44;101504.89;;;11.57;100.00
13367;BME280;6752;52.612;13.630;2022-09-02T04:37:46;101504.58;;;11.56;100.00
13367;BME280;6752;52.612;13.630;2022-09-02T04:42:48;101506.30;;;11.60;100.00
13367;BME280;6752;52.612;13.630;2022-09-02T04:47:54;101515.05;;;11.79;100.00
13367;BME280;6752;52.612;13.630;2022-09-02T04:52:53;101503.20;;;11.83;100.00
13367;BME280;6752;52.612;13.630;2022-09-02T04:57:56;101506.87;;;11.99;100.00
13367;BME280;6752;52.612;13.630;2022-09-02T05:02:58;101502.66;;;12.03;100.00
13367;BME280;6752;52.612;13.630;2022-09-02T05:08:00;101505.41;;;12.13;100.00
13367;BME280;6752;52.612;13.630;2022-09-02T05:13:03;101508.95;;;12.27;100.00
13367;BME280;6752;52.612;13.630;2022-09-02T05:18:05;101507.48;;;12.28;100.00
13367;BME280;6752;52.612;13.630;2022-09-02T05:23:08;101506.72;;;12.50;100.00
13367;BME280;6752;52.612;13.630;2022-09-02T05:28:10;101513.81;;;12.74;100.00
13367;BME280;6752;52.612;13.630;2022-09-02T05:33:12;101514.38;;;12.96;100.00
13367;BME280;6752;52.612;13.630;2022-09-02T05:38:15;101519.13;;;13.17;100.00
13367;BME280;6752;52.612;13.630;2022-09-02T05:43:17;101509.69;;;13.38;100.00
13367;BME280;6752;52.612;13.630;2022-09-02T05:48:19;101515.60;;;13.54;100.00
13367;BME280;6752;52.612;13.630;2022-09-02T05:53:44;101510.00;;;13.74;100.00
13367;BME280;6752;52.612;13.630;2022-09-02T05:58:42;101507.50;;;13.97;100.00
13367;BME280;6752;52.612;13.630;2022-09-02T06:03:45;101519.70;;;14.02;100.00
13367;BME280;6752;52.612;13.630;2022-09-02T06:08:47;101516.80;;;14.22;100.00
13367;BME280;6752;52.612;13.630;2022-09-02T06:13:49;101520.16;;;14.67;100.00
13367;BME280;6752;52.612;13.630;2022-09-02T06:18:52;101520.42;;;14.92;100.00
13367;BME280;6752;52.612;13.630;2022-09-02T06:23:54;101518.89;;;15.45;100.00
13367;BME280;6752;52.612;13.630;2022-09-02T06:28:56;101515.44;;;15.74;99.33
13367;BME280;6752;52.612;13.630;2022-09-02T06:33:59;101521.98;;;16.14;99.11
13367;BME280;6752;52.612;13.630;2022-09-02T06:39:01;101513.00;;;16.54;97.74
13367;BME280;6752;52.612;13.630;2022-09-02T06:44:04;101508.77;;;16.20;96.49
13367;BME280;6752;52.612;13.630;2022-09-02T06:49:06;101517.40;;;15.91;96.36
13367;BME280;6752;52.612;13.630;2022-09-02T06:54:09;101520.64;;;15.84;94.41
13367;BME280;6752;52.612;13.630;2022-09-02T06:59:10;101512.72;;;16.47;93.36
13367;BME280;6752;52.612;13.630;2022-09-02T07:04:13;101504.33;;;17.72;86.42
13367;BME280;6752;52.612;13.630;2022-09-02T07:09:33;101511.62;;;18.00;83.55
13367;BME280;6752;52.612;13.630;2022-09-02T07:14:37;101503.31;;;18.34;80.29
13367;BME280;6752;52.612;13.630;2022-09-02T07:19:38;101505.36;;;18.60;79.08
13367;BME280;6752;52.612;13.630;2022-09-02T07:24:40;101511.82;;;18.74;76.68
13367;BME280;6752;52.612;13.630;2022-09-02T07:29:43;101515.87;;;18.78;75.45
13367;BME280;6752;52.612;13.630;2022-09-02T07:34:45;101506.25;;;20.05;73.98
13367;BME280;6752;52.612;13.630;2022-09-02T07:39:48;101501.73;;;20.31;71.08
13367;BME280;6752;52.612;13.630;2022-09-02T07:44:50;101500.76;;;20.63;69.76
13367;BME280;6752;52.612;13.630;2022-09-02T07:49:52;101498.94;;;21.18;69.76
13367;BME280;6752;52.612;13.630;2022-09-02T07:54:55;101503.32;;;21.29;67.22
13367;BME280;6752;52.612;13.630;2022-09-02T07:59:57;101502.61;;;22.03;66.82
13367;BME280;6752;52.612;13.630;2022-09-02T08:04:59;101503.08;;;22.71;65.03
13367;BME280;6752;52.612;13.630;2022-09-02T08:10:02;101499.59;;;22.95;62.57
13367;BME280;6752;52.612;13.630;2022-09-02T08:15:04;101498.53;;;23.38;64.29
13367;BME280;6752;52.612;13.630;2022-09-02T08:20:06;101493.91;;;22.70;60.31
13367;BME280;6752;52.612;13.630;2022-09-02T08:25:08;101490.66;;;24.11;60.10
13367;BME280;6752;52.612;13.630;2022-09-02T08:30:10;101494.06;;;23.44;59.05
13367;BME280;6752;52.612;13.630;2022-09-02T08:35:12;101496.38;;;23.96;57.38
13367;BME280;6752;52.612;13.630;2022-09-02T08:40:17;101489.55;;;23.95;58.01
13367;BME280;6752;52.612;13.630;2022-09-02T08:50:28;101475.34;;;24.69;55.89
13367;BME280;6752;52.612;13.630;2022-09-02T08:55:56;101488.38;;;24.50;55.06
13367;BME280;6752;52.612;13.630;2022-09-02T09:00:38;101469.16;;;24.63;54.53
13367;BME280;6752;52.612;13.630;2022-09-02T09:05:58;101478.39;;;24.94;53.99
13367;BME280;6752;52.612;13.630;2022-09-02T09:10:54;101472.77;;;25.11;54.31
13367;BME280;6752;52.612;13.630;2022-09-02T09:16:18;101467.23;;;25.06;54.25
13367;BME280;6752;52.612;13.630;2022-09-02T09:21:18;101471.00;;;24.94;53.16
13367;BME280;6752;52.612;13.630;2022-09-02T09:26:22;101461.64;;;24.03;52.63
13367;BME280;6752;52.612;13.630;2022-09-02T09:31:23;101463.34;;;24.13;52.13
13367;BME280;6752;52.612;13.630;2022-09-02T09:36:44;101467.73;;;24.36;51.73
13367;BME280;6752;52.612;13.630;2022-09-02T09:41:46;101456.00;;;25.14;49.81
13367;BME280;6752;52.612;13.630;2022-09-02T09:46:48;101446.16;;;24.73;50.18
13367;BME280;6752;52.612;13.630;2022-09-02T09:51:52;101456.18;;;24.39;50.18
13367;BME280;6752;52.612;13.630;2022-09-02T09:56:53;101437.77;;;24.97;50.34
13367;BME280;6752;52.612;13.630;2022-09-02T10:01:54;101433.42;;;25.69;47.59
13367;BME280;6752;52.612;13.630;2022-09-02T10:06:57;101439.14;;;25.49;47.60
13367;BME280;6752;52.612;13.630;2022-09-02T10:12:06;101433.84;;;25.13;48.36
13367;BME280;6752;52.612;13.630;2022-09-02T10:28:00;101411.22;;;26.01;46.08
13367;BME280;6752;52.612;13.630;2022-09-02T10:33:03;101413.33;;;26.73;45.84
13367;BME280;6752;52.612;13.630;2022-09-02T10:38:40;101413.07;;;26.08;46.40
13367;BME280;6752;52.612;13.630;2022-09-02T10:43:27;101411.21;;;26.17;46.17
13367;BME280;6752;52.612;13.630;2022-09-02T10:54:06;101412.28;;;23.79;47.80
13367;BME280;6752;52.612;13.630;2022-09-02T10:59:15;101395.84;;;26.03;46.04
13367;BME280;6752;52.612;13.630;2022-09-02T11:14:30;101381.30;;;26.11;42.93
13367;BME280;6752;52.612;13.630;2022-09-02T11:19:42;101393.37;;;24.70;45.10
13367;BME280;6752;52.612;13.630;2022-09-02T11:24:54;101384.17;;;25.22;44.75
13367;BME280;6752;52.612;13.630;2022-09-02T11:30:14;101379.28;;;24.71;44.33
13367;BME280;6752;52.612;13.630;2022-09-02T11:35:22;101367.97;;;25.59;39.91
13367;BME280;6752;52.612;13.630;2022-09-02T11:40:23;101368.94;;;26.37;40.78
13367;BME280;6752;52.612;13.630;2022-09-02T11:45:48;101363.16;;;25.71;41.02
13367;BME280;6752;52.612;13.630;2022-09-02T11:50:36;101375.44;;;24.55;44.51
13367;BME280;6752;52.612;13.630;2022-09-02T11:55:41;101377.02;;;23.50;45.50
13367;BME280;6752;52.612;13.630;2022-09-02T12:06:07;101350.11;;;25.41;42.30
13367;BME280;6752;52.612;13.630;2022-09-02T12:11:05;101345.08;;;24.84;43.78
13367;BME280;6752;52.612;13.630;2022-09-02T12:21:18;101334.55;;;25.28;41.84
13367;BME280;6752;52.612;13.630;2022-09-02T12:26:29;101330.42;;;25.97;41.76
13367;BME280;6752;52.612;13.630;2022-09-02T12:31:41;101317.64;;;25.87;41.76
13367;BME280;6752;52.612;13.630;2022-09-02T12:36:44;101331.30;;;23.61;44.93
13367;BME280;6752;52.612;13.630;2022-09-02T12:41:45;101325.94;;;23.53;45.61
13367;BME280;6752;52.612;13.630;2022-09-02T12:46:56;101316.19;;;23.84;45.49
13367;BME280;6752;52.612;13.630;2022-09-02T12:51:59;101312.81;;;23.87;44.89
13367;BME280;6752;52.612;13.630;2022-09-02T12:57:01;101320.22;;;23.22;45.93
13367;BME280;6752;52.612;13.630;2022-09-02T13:02:22;101328.91;;;22.88;47.81
13367;BME280;6752;52.612;13.630;2022-09-02T13:12:56;101310.78;;;23.35;48.19
13367;BME280;6752;52.612;13.630;2022-09-02T13:18:33;101308.78;;;23.41;47.42
13367;BME280;6752;52.612;13.630;2022-09-02T13:34:29;101298.95;;;24.85;43.45
13367;BME280;6752;52.612;13.630;2022-09-02T13:39:31;101293.41;;;25.36;43.72
13367;BME280;6752;52.612;13.630;2022-09-02T13:44:34;101290.06;;;25.60;43.91
13367;BME280;6752;52.612;13.630;2022-09-02T13:49:36;101281.14;;;24.81;44.95
13367;BME280;6752;52.612;13.630;2022-09-02T13:54:38;101271.83;;;24.05;44.47
13367;BME280;6752;52.612;13.630;2022-09-02T13:59:48;101265.97;;;24.18;43.88
13367;BME280;6752;52.612;13.630;2022-09-02T14:04:50;101259.18;;;24.58;43.13
13367;BME280;6752;52.612;13.630;2022-09-02T14:09:51;101247.94;;;24.84;43.60
13367;BME280;6752;52.612;13.630;2022-09-02T14:14:54;101245.83;;;24.15;43.80
13367;BME280;6752;52.612;13.630;2022-09-02T14:25:17;101240.97;;;24.37;43.10
13367;BME280;6752;52.612;13.630;2022-09-02T14:30:34;101242.30;;;24.61;43.09
13367;BME280;6752;52.612;13.630;2022-09-02T14:35:36;101230.73;;;24.30;41.58
13367;BME280;6752;52.612;13.630;2022-09-02T14:40:39;101237.59;;;24.04;42.54
13367;BME280;6752;52.612;13.630;2022-09-02T14:45:46;101233.46;;;23.66;41.86
13367;BME280;6752;52.612;13.630;2022-09-02T14:50:43;101225.75;;;23.82;42.68
13367;BME280;6752;52.612;13.630;2022-09-02T14:55:53;101222.45;;;24.34;42.71
13367;BME280;6752;52.612;13.630;2022-09-02T15:00:55;101215.30;;;24.26;42.82
13367;BME280;6752;52.612;13.630;2022-09-02T15:05:56;101228.45;;;23.78;43.64
13367;BME280;6752;52.612;13.630;2022-09-02T15:11:00;101232.66;;;24.08;43.79
13367;BME280;6752;52.612;13.630;2022-09-02T15:16:02;101226.67;;;24.08;43.18
13367;BME280;6752;52.612;13.630;2022-09-02T15:21:04;101217.30;;;24.13;43.60
13367;BME280;6752;52.612;13.630;2022-09-02T15:26:06;101225.22;;;23.80;42.53
13367;BME280;6752;52.612;13.630;2022-09-02T15:31:09;101222.92;;;23.84;42.92
13367;BME280;6752;52.612;13.630;2022-09-02T15:36:11;101221.26;;;23.31;44.82
13367;BME280;6752;52.612;13.630;2022-09-02T15:41:17;101221.78;;;22.62;45.86
13367;BME280;6752;52.612;13.630;2022-09-02T15:46:23;101223.53;;;22.53;46.70
13367;BME280;6752;52.612;13.630;2022-09-02T15:51:24;101216.16;;;23.11;46.30
13367;BME280;6752;52.612;13.630;2022-09-02T15:56:27;101220.52;;;23.22;45.53
13367;BME280;6752;52.612;13.630;2022-09-02T16:01:29;101207.94;;;23.27;46.01
13367;BME280;6752;52.612;13.630;2022-09-02T16:06:31;101221.34;;;22.89;43.81
13367;BME280;6752;52.612;13.630;2022-09-02T16:11:35;101215.61;;;22.70;44.20
13367;BME280;6752;52.612;13.630;2022-09-02T16:16:36;101209.99;;;22.80;44.92
13367;BME280;6752;52.612;13.630;2022-09-02T16:21:38;101213.48;;;22.35;45.13
13367;BME280;6752;52.612;13.630;2022-09-02T16:26:40;101221.55;;;21.96;46.56
13367;BME280;6752;52.612;13.630;2022-09-02T16:31:43;101218.81;;;21.89;46.68
13367;BME280;6752;52.612;13.630;2022-09-02T16:36:46;101213.49;;;21.52;47.25
13367;BME280;6752;52.612;13.630;2022-09-02T16:41:50;101216.45;;;21.41;48.44
13367;BME280;6752;52.612;13.630;2022-09-02T16:46:52;101219.48;;;21.48;47.78
13367;BME280;6752;52.612;13.630;2022-09-02T16:51:55;101208.16;;;21.06;48.89
13367;BME280;6752;52.612;13.630;2022-09-02T16:56:57;101212.16;;;20.99;49.78
13367;BME280;6752;52.612;13.630;2022-09-02T17:01:59;101212.42;;;20.72;49.92
13367;BME280;6752;52.612;13.630;2022-09-02T17:07:02;101211.06;;;20.82;50.48
13367;BME280;6752;52.612;13.630;2022-09-02T17:12:04;101207.13;;;20.58;51.13
13367;BME280;6752;52.612;13.630;2022-09-02T17:17:06;101210.06;;;20.60;51.18
13367;BME280;6752;52.612;13.630;2022-09-02T17:22:09;101209.66;;;20.23;51.63
13367;BME280;6752;52.612;13.630;2022-09-02T17:27:11;101209.78;;;20.12;51.93
13367;BME280;6752;52.612;13.630;2022-09-02T17:32:14;101212.55;;;20.12;52.54
13367;BME280;6752;52.612;13.630;2022-09-02T17:37:16;101215.27;;;20.07;53.19
13367;BME280;6752;52.612;13.630;2022-09-02T17:42:19;101215.09;;;19.92;53.27
13367;BME280;6752;52.612;13.630;2022-09-02T17:47:21;101219.88;;;19.86;54.31
13367;BME280;6752;52.612;13.630;2022-09-02T17:52:23;101217.38;;;19.40;54.66
13367;BME280;6752;52.612;13.630;2022-09-02T17:57:55;101218.30;;;19.32;55.02
13367;BME280;6752;52.612;13.630;2022-09-02T18:03:08;101218.52;;;19.23;55.78
13367;BME280;6752;52.612;13.630;2022-09-02T18:08:38;101219.00;;;18.80;56.75
13367;BME280;6752;52.612;13.630;2022-09-02T18:19:10;101231.47;;;18.69;56.81
13367;BME280;6752;52.612;13.630;2022-09-02T18:24:13;101236.00;;;18.32;58.02
13367;BME280;6752;52.612;13.630;2022-09-02T18:35:03;101242.48;;;18.20;59.30
13367;BME280;6752;52.612;13.630;2022-09-02T18:40:27;101244.96;;;17.87;59.73
13367;BME280;6752;52.612;13.630;2022-09-02T18:45:36;101244.13;;;17.75;59.74
13367;BME280;6752;52.612;13.630;2022-09-02T18:50:28;101251.12;;;17.66;60.32
13367;BME280;6752;52.612;13.630;2022-09-02T18:55:32;101255.98;;;17.59;60.48
13367;BME280;6752;52.612;13.630;2022-09-02T19:00:35;101257.07;;;17.49;60.61
13367;BME280;6752;52.612;13.630;2022-09-02T19:05:36;101257.92;;;17.42;60.87
13367;BME280;6752;52.612;13.630;2022-09-02T19:10:38;101255.86;;;17.32;61.24
13367;BME280;6752;52.612;13.630;2022-09-02T19:15:40;101261.78;;;17.32;60.91
13367;BME280;6752;52.612;13.630;2022-09-02T19:20:43;101266.68;;;17.28;61.00
13367;BME280;6752;52.612;13.630;2022-09-02T19:25:46;101262.34;;;17.01;62.22
13367;BME280;6752;52.612;13.630;2022-09-02T19:30:48;101269.30;;;17.12;61.72
13367;BME280;6752;52.612;13.630;2022-09-02T19:35:50;101263.98;;;16.99;62.35
13367;BME280;6752;52.612;13.630;2022-09-02T19:40:52;101271.37;;;16.73;63.41
13367;BME280;6752;52.612;13.630;2022-09-02T19:45:55;101274.87;;;16.69;63.05
13367;BME280;6752;52.612;13.630;2022-09-02T19:50:57;101280.50;;;16.77;63.00
13367;BME280;6752;52.612;13.630;2022-09-02T19:55:59;101280.38;;;16.77;62.72
13367;BME280;6752;52.612;13.630;2022-09-02T20:01:01;101277.08;;;16.64;63.06
13367;BME280;6752;52.612;13.630;2022-09-02T20:06:03;101277.83;;;16.59;63.18
13367;BME280;6752;52.612;13.630;2022-09-02T20:11:05;101267.02;;;16.49;63.48
13367;BME280;6752;52.612;13.630;2022-09-02T20:16:14;101272.14;;;16.43;63.85
13367;BME280;6752;52.612;13.630;2022-09-02T20:21:20;101272.80;;;16.42;64.01
13367;BME280;6752;52.612;13.630;2022-09-02T20:36:49;101289.09;;;16.17;64.46
13367;BME280;6752;52.612;13.630;2022-09-02T20:41:58;101283.77;;;16.19;64.55
13367;BME280;6752;52.612;13.630;2022-09-02T20:52:20;101290.61;;;15.99;65.02
13367;BME280;6752;52.612;13.630;2022-09-02T20:57:33;101287.14;;;16.09;64.41
13367;BME280;6752;52.612;13.630;2022-09-02T21:02:44;101293.00;;;16.01;64.55
13367;BME280;6752;52.612;13.630;2022-09-02T21:07:44;101302.98;;;15.99;64.42
13367;BME280;6752;52.612;13.630;2022-09-02T21:12:51;101298.95;;;15.90;64.79
13367;BME280;6752;52.612;13.630;2022-09-02T21:18:13;101302.94;;;15.85;64.87
13367;BME280;6752;52.612;13.630;2022-09-02T21:22:52;101305.29;;;15.73;65.48
13367;BME280;6752;52.612;13.630;2022-09-02T21:27:57;101301.48;;;15.62;66.03
13367;BME280;6752;52.612;13.630;2022-09-02T21:33:03;101306.09;;;15.50;66.17
13367;BME280;6752;52.612;13.630;2022-09-02T21:38:22;101305.31;;;15.52;65.78
13367;BME280;6752;52.612;13.630;2022-09-02T21:43:51;101301.84;;;15.57;65.91
13367;BME280;6752;52.612;13.630;2022-09-02T21:48:59;101297.73;;;15.39;66.68
13367;BME280;6752;52.612;13.630;2022-09-02T21:54:15;101293.64;;;15.36;66.62
13367;BME280;6752;52.612;13.630;2022-09-02T21:59:30;101293.02;;;15.43;66.56
13367;BME280;6752;52.612;13.630;2022-09-02T22:04:35;101301.83;;;15.27;67.04
13367;BME280;6752;52.612;13.630;2022-09-02T22:09:33;101296.58;;;15.26;67.04
13367;BME280;6752;52.612;13.630;2022-09-02T22:15:02;101300.95;;;15.03;67.86
13367;BME280;6752;52.612;13.630;2022-09-02T22:20:04;101301.23;;;14.93;68.16
13367;BME280;6752;52.612;13.630;2022-09-02T22:25:05;101303.22;;;15.01;68.04
13367;BME280;6752;52.612;13.630;2022-09-02T22:30:13;101299.75;;;14.99;68.00
13367;BME280;6752;52.612;13.630;2022-09-02T22:35:26;101303.74;;;14.94;68.31
13367;BME280;6752;52.612;13.630;2022-09-02T22:40:29;101302.43;;;14.97;68.16
13367;BME280;6752;52.612;13.630;2022-09-02T22:45:32;101310.66;;;14.91;68.18
13367;BME280;6752;52.612;13.630;2022-09-02T22:50:51;101306.98;;;14.88;68.40
13367;BME280;6752;52.612;13.630;2022-09-02T22:56:10;101304.00;;;14.89;68.33
13367;BME280;6752;52.612;13.630;2022-09-02T23:01:19;101310.53;;;14.71;69.10
13367;BME280;6752;52.612;13.630;2022-09-02T23:06:27;101310.30;;;14.72;69.12
13367;BME280;6752;52.612;13.630;2022-09-02T23:17:07;101295.19;;;14.57;69.56
13367;BME280;6752;52.612;13.630;2022-09-02T23:22:09;101296.51;;;14.61;69.64
13367;BME280;6752;52.612;13.630;2022-09-02T23:27:33;101291.30;;;14.50;70.12
13367;BME280;6752;52.612;13.630;2022-09-02T23:43:06;101286.70;;;14.35;70.95
13367;BME280;6752;52.612;13.630;2022-09-02T23:53:58;101282.24;;;14.22;71.86
